createdAt,value
2019-05-23T00:00:54.120Z,58.38
2019-05-23T00:04:01.626Z,52.73
2019-05-23T00:06:52.328Z,52.25
2019-05-23T00:09:42.653Z,48.17
2019-05-23T00:12:33.204Z,51.00
2019-05-23T00:17:43.683Z,50.15
2019-05-23T00:20:16.773Z,40.92
2019-05-23T00:22:49.147Z,41.20
2019-05-23T00:25:20.589Z,30.43
2019-05-23T00:27:54.199Z,47.95
2019-05-23T00:30:27.665Z,46.70
2019-05-23T00:33:00.585Z,31.02
2019-05-23T00:35:33.783Z,31.40
2019-05-23T00:38:06.045Z,32.00
2019-05-23T00:40:39.546Z,35.20
2019-05-23T00:43:12.822Z,37.67
2019-05-23T00:45:45.201Z,45.23
2019-05-23T00:48:17.574Z,42.23
2019-05-23T00:50:50.772Z,40.67
2019-05-23T00:53:22.531Z,30.82
2019-05-23T00:55:54.589Z,34.67
2019-05-23T00:58:26.862Z,24.45
2019-05-23T01:01:00.050Z,25.05
2019-05-23T01:03:32.284Z,21.77
2019-05-23T01:06:03.669Z,23.73
2019-05-23T01:08:35.530Z,26.07
2019-05-23T01:11:07.391Z,29.18
2019-05-23T01:13:40.378Z,28.47
2019-05-23T01:16:12.359Z,30.65
2019-05-23T01:18:43.684Z,38.35
2019-05-23T01:21:28.972Z,34.95
2019-05-23T01:24:05.324Z,41.70
2019-05-23T01:26:36.878Z,28.60
2019-05-23T01:29:09.300Z,26.52
2019-05-23T01:31:42.445Z,23.32
2019-05-23T01:34:15.024Z,25.92
2019-05-23T01:36:47.123Z,33.42
2019-05-23T01:39:19.313Z,28.20
2019-05-23T01:41:51.232Z,22.67
2019-05-23T01:44:24.203Z,18.82
2019-05-23T01:46:56.069Z,21.40
2019-05-23T01:49:28.948Z,18.23
2019-05-23T01:52:00.396Z,20.52
2019-05-23T01:54:32.156Z,18.17
2019-05-23T01:57:03.960Z,19.90
2019-05-23T01:59:35.875Z,21.52
2019-05-23T02:02:08.033Z,19.73
2019-05-23T02:04:40.924Z,17.75
2019-05-23T02:07:13.907Z,19.00
2019-05-23T02:09:46.296Z,18.42
2019-05-23T02:12:18.657Z,16.70
2019-05-23T02:14:50.099Z,19.17
2019-05-23T02:17:21.857Z,17.70
2019-05-23T02:19:55.067Z,17.37
2019-05-23T02:22:28.306Z,19.60
2019-05-23T02:25:00.006Z,17.95
2019-05-23T02:27:31.764Z,24.18
2019-05-23T02:30:05.780Z,22.20
2019-05-23T02:32:37.379Z,23.00
2019-05-23T02:35:10.762Z,20.85
2019-05-23T02:37:44.112Z,21.45
2019-05-23T02:40:23.150Z,23.57
2019-05-23T02:43:02.082Z,24.25
2019-05-23T02:45:51.543Z,21.17
2019-05-23T02:48:24.936Z,17.37
2019-05-23T02:51:01.049Z,21.75
2019-05-23T02:53:33.801Z,20.62
2019-05-23T02:56:08.808Z,22.27
2019-05-23T02:58:48.113Z,23.62
2019-05-23T03:01:36.922Z,26.77
2019-05-23T03:04:10.462Z,22.55
2019-05-23T03:06:41.985Z,29.42
2019-05-23T03:09:15.658Z,24.60
2019-05-23T03:11:50.015Z,27.02
2019-05-23T03:14:22.577Z,29.95
2019-05-23T03:16:54.530Z,29.92
2019-05-23T03:19:47.238Z,36.93
2019-05-23T03:22:31.839Z,36.10
2019-05-23T03:25:10.840Z,35.58
2019-05-23T03:27:44.650Z,38.67
2019-05-23T03:30:18.047Z,39.90
2019-05-23T03:32:51.828Z,45.80
2019-05-23T03:38:09.113Z,52.88
2019-05-23T03:40:41.566Z,62.60
2019-05-23T03:43:13.618Z,47.78
2019-05-23T03:45:52.586Z,41.08
2019-05-23T03:48:24.823Z,49.13
2019-05-23T03:50:57.942Z,46.65
2019-05-23T03:53:30.823Z,52.78
2019-05-23T03:56:03.849Z,62.65
2019-05-23T03:58:35.751Z,67.35
2019-05-23T04:01:09.043Z,61.55
2019-05-23T04:03:42.682Z,48.15
2019-05-23T04:06:14.506Z,52.67
2019-05-23T04:08:46.885Z,39.33
2019-05-23T04:11:19.029Z,30.70
2019-05-23T04:13:50.405Z,31.05
2019-05-23T04:16:23.186Z,39.15
2019-05-23T04:18:54.843Z,34.50
2019-05-23T04:21:27.409Z,38.08
2019-05-23T04:23:59.058Z,39.25
2019-05-23T04:26:31.115Z,43.85
2019-05-23T04:29:03.484Z,49.33
2019-05-23T04:31:35.064Z,53.38
2019-05-23T04:34:06.399Z,57.23
2019-05-23T04:36:38.057Z,61.92
2019-05-23T04:39:10.012Z,55.45
2019-05-23T04:41:42.026Z,42.98
2019-05-23T04:44:15.377Z,39.88
2019-05-23T04:46:46.944Z,37.28
2019-05-23T04:49:19.709Z,37.53
2019-05-23T04:51:51.678Z,33.10
2019-05-23T04:54:23.357Z,35.52
2019-05-23T04:56:56.844Z,46.33
2019-05-23T04:59:28.380Z,56.37
2019-05-23T05:02:00.242Z,48.55
2019-05-23T05:04:31.889Z,50.78
2019-05-23T05:07:04.910Z,52.05
2019-05-23T05:09:38.173Z,69.27
2019-05-23T05:12:10.250Z,61.13
2019-05-23T05:14:41.804Z,85.03
2019-05-23T05:17:13.708Z,76.50
2019-05-23T05:19:44.995Z,71.77
2019-05-23T05:22:16.958Z,53.85
2019-05-23T05:24:48.620Z,51.58
2019-05-23T05:27:21.409Z,44.23
2019-05-23T05:29:53.154Z,50.73
2019-05-23T05:32:41.461Z,49.65
2019-05-23T05:34:58.109Z,50.60
2019-05-23T05:37:30.477Z,43.17
2019-05-23T05:40:02.126Z,33.40
2019-05-23T05:42:34.819Z,31.57
2019-05-23T05:45:09.220Z,39.50
2019-05-23T05:47:47.308Z,35.95
2019-05-23T05:50:18.791Z,33.35
2019-05-23T05:52:50.445Z,31.82
2019-05-23T05:55:21.788Z,31.93
2019-05-23T05:57:59.072Z,57.62
2019-05-23T06:00:52.667Z,53.65
2019-05-23T06:03:24.096Z,59.88
2019-05-23T06:05:56.983Z,28.38
2019-05-23T06:08:31.621Z,24.10
2019-05-23T06:11:02.953Z,25.37
2019-05-23T06:13:35.257Z,16.42
2019-05-23T06:16:06.776Z,16.85
2019-05-23T06:18:51.346Z,31.45
2019-05-23T06:21:24.413Z,25.37
2019-05-23T06:26:26.511Z,22.93
2019-05-23T06:28:58.982Z,25.95
2019-05-23T06:31:34.129Z,24.30
2019-05-23T06:34:05.774Z,31.42
2019-05-23T06:36:37.223Z,24.02
2019-05-23T06:39:10.729Z,17.25
2019-05-23T06:41:42.103Z,15.88
2019-05-23T06:44:14.131Z,11.35
2019-05-23T06:46:46.191Z,9.55
2019-05-23T06:49:19.443Z,6.90
2019-05-23T06:51:50.737Z,11.60
2019-05-23T06:54:22.897Z,8.78
2019-05-23T06:59:27.250Z,10.23
2019-05-23T07:02:03.069Z,10.43
2019-05-23T07:04:34.436Z,9.50
2019-05-23T07:07:07.545Z,7.78
2019-05-23T07:09:38.877Z,12.82
2019-05-23T07:12:12.583Z,8.43
2019-05-23T07:14:44.239Z,10.05
2019-05-23T07:17:16.685Z,7.10
2019-05-23T07:19:48.239Z,5.67
2019-05-23T07:22:21.764Z,7.15
2019-05-23T07:24:58.037Z,7.60
2019-05-23T07:27:33.263Z,14.85
2019-05-23T07:30:09.120Z,7.35
2019-05-23T07:32:40.498Z,5.70
2019-05-23T07:35:12.018Z,6.83
2019-05-23T07:37:43.470Z,8.80
2019-05-23T07:40:15.465Z,6.97
2019-05-23T07:42:46.884Z,6.62
2019-05-23T07:45:39.961Z,5.15
2019-05-23T07:48:13.027Z,5.30
2019-05-23T07:50:53.489Z,5.72
2019-05-23T07:53:26.693Z,7.85
2019-05-23T07:56:00.080Z,7.87
2019-05-23T07:58:32.342Z,6.55
2019-05-23T08:01:07.849Z,5.62
2019-05-23T08:03:41.086Z,10.85
2019-05-23T08:06:13.167Z,11.05
2019-05-23T08:08:49.819Z,4.42
2019-05-23T08:11:22.907Z,5.55
2019-05-23T08:13:54.577Z,5.92
2019-05-23T08:16:26.319Z,8.53
2019-05-23T08:18:57.687Z,7.22
2019-05-23T08:21:50.768Z,24.85
2019-05-23T08:24:22.081Z,16.85
2019-05-23T08:26:54.963Z,7.55
2019-05-23T08:29:27.075Z,10.00
2019-05-23T08:32:01.315Z,6.65
2019-05-23T08:34:44.051Z,8.53
2019-05-23T08:37:19.502Z,6.20
2019-05-23T08:39:51.791Z,10.32
2019-05-23T08:42:24.150Z,6.42
2019-05-23T08:44:56.112Z,8.90
2019-05-23T08:47:31.114Z,3.55
2019-05-23T08:50:03.667Z,10.78
2019-05-23T08:52:35.173Z,3.70
2019-05-23T08:55:15.797Z,4.97
2019-05-23T08:57:49.685Z,3.62
2019-05-23T09:00:20.996Z,4.67
2019-05-23T09:02:58.047Z,3.95
2019-05-23T09:05:28.805Z,6.25
2019-05-23T09:08:00.780Z,5.10
2019-05-23T09:10:39.672Z,6.97
2019-05-23T09:13:12.172Z,4.47
2019-05-23T09:18:14.822Z,3.98
2019-05-23T09:20:46.146Z,5.42
2019-05-23T09:23:17.558Z,3.10
2019-05-23T09:25:52.130Z,3.05
2019-05-23T09:28:23.942Z,4.17
2019-05-23T09:30:55.841Z,7.03
2019-05-23T09:33:29.516Z,10.00
2019-05-23T09:38:31.887Z,4.67
2019-05-23T09:41:03.450Z,7.53
2019-05-23T09:43:35.204Z,7.28
2019-05-23T09:46:06.546Z,2.60
2019-05-23T09:48:37.997Z,6.42
2019-05-23T09:51:09.766Z,4.85
2019-05-23T09:53:46.908Z,4.12
2019-05-23T09:56:14.440Z,5.37
2019-05-23T09:58:46.052Z,7.05
2019-05-23T10:01:18.016Z,5.83
2019-05-23T10:03:49.580Z,5.00
2019-05-23T10:06:21.964Z,6.10
2019-05-23T10:08:53.603Z,11.33
2019-05-23T10:11:24.947Z,9.10
2019-05-23T10:13:56.287Z,8.30
2019-05-23T10:16:27.846Z,17.57
2019-05-23T10:19:01.448Z,13.75
2019-05-23T10:24:04.813Z,9.80
2019-05-23T10:26:36.104Z,8.83
2019-05-23T10:29:07.768Z,14.58
2019-05-23T10:31:39.318Z,18.20
2019-05-23T10:34:11.547Z,14.85
2019-05-23T10:36:43.034Z,14.53
2019-05-23T10:39:14.705Z,14.00
2019-05-23T10:41:46.249Z,19.57
2019-05-23T10:44:18.207Z,17.32
2019-05-23T10:46:50.273Z,21.90
2019-05-23T10:49:21.844Z,22.90
2019-05-23T10:51:53.616Z,18.40
2019-05-23T10:54:25.128Z,24.65
2019-05-23T10:56:56.479Z,31.27
2019-05-23T10:59:28.421Z,38.53
2019-05-23T11:02:00.196Z,32.50
2019-05-23T11:04:32.161Z,24.27
2019-05-23T11:07:03.771Z,29.60
2019-05-23T11:09:38.268Z,24.52
2019-05-23T11:12:09.458Z,26.07
2019-05-23T11:14:41.142Z,27.60
2019-05-23T11:17:12.592Z,24.30
2019-05-23T11:19:44.530Z,15.32
2019-05-23T11:22:15.905Z,18.05
2019-05-23T11:24:47.457Z,21.42
2019-05-23T11:27:19.322Z,12.73
2019-05-23T11:29:51.066Z,11.90
2019-05-23T11:32:23.401Z,8.48
2019-05-23T11:34:55.198Z,8.93
2019-05-23T11:37:26.892Z,8.80
2019-05-23T11:39:58.403Z,7.50
2019-05-23T11:42:29.652Z,9.48
2019-05-23T11:45:01.212Z,5.78
2019-05-23T11:47:32.867Z,11.00
2019-05-23T11:50:07.528Z,8.08
2019-05-23T11:52:39.750Z,8.15
2019-05-23T11:55:11.533Z,9.00
2019-05-23T11:57:43.211Z,8.03
2019-05-23T12:00:19.091Z,10.70
2019-05-23T12:02:51.293Z,9.28
2019-05-23T12:05:30.123Z,13.10
2019-05-23T12:08:01.769Z,12.65
2019-05-23T12:10:34.760Z,11.63
2019-05-23T12:13:06.858Z,8.60
2019-05-23T12:15:40.152Z,6.35
2019-05-23T12:18:11.583Z,14.20
2019-05-23T12:20:43.545Z,7.55
2019-05-23T12:23:14.885Z,5.95
2019-05-23T12:25:46.917Z,9.98
2019-05-23T12:28:18.495Z,8.68
2019-05-23T12:30:49.841Z,6.22
2019-05-23T12:33:21.243Z,7.80
2019-05-23T12:35:53.213Z,8.25
2019-05-23T12:38:24.827Z,7.90
2019-05-23T12:40:56.270Z,7.87
2019-05-23T12:43:27.715Z,9.58
2019-05-23T12:45:59.286Z,7.05
2019-05-23T12:48:38.197Z,5.58
2019-05-23T12:51:14.723Z,6.87
2019-05-23T12:53:46.126Z,8.40
2019-05-23T12:56:17.661Z,6.85
2019-05-23T12:58:49.476Z,11.35
2019-05-23T13:01:21.964Z,5.00
2019-05-23T13:03:53.772Z,6.65
2019-05-23T13:06:25.213Z,6.45
2019-05-23T13:08:56.958Z,10.60
2019-05-23T13:11:28.859Z,4.75
2019-05-23T13:14:00.179Z,10.48
2019-05-23T13:16:32.036Z,10.65
2019-05-23T13:19:03.716Z,6.58
2019-05-23T13:21:35.556Z,6.35
2019-05-23T13:24:07.218Z,7.97
2019-05-23T13:26:38.981Z,14.60
2019-05-23T13:29:10.736Z,7.92
2019-05-23T13:31:43.118Z,6.67
2019-05-23T13:34:14.653Z,6.10
2019-05-23T13:36:46.505Z,12.43
2019-05-23T13:39:18.163Z,11.80
2019-05-23T13:41:49.701Z,6.45
2019-05-23T13:44:32.702Z,6.17
2019-05-23T13:46:54.308Z,5.90
2019-05-23T13:49:26.382Z,8.48
2019-05-23T13:51:57.945Z,5.40
2019-05-23T13:54:29.822Z,6.47
2019-05-23T13:57:01.821Z,7.67
2019-05-23T14:02:09.035Z,7.72
2019-05-23T14:11:27.180Z,8.03
2019-05-23T14:14:01.575Z,11.75
2019-05-23T14:16:43.725Z,10.93
2019-05-23T14:19:20.073Z,9.18
2019-05-23T14:21:52.150Z,11.22
2019-05-23T14:24:23.884Z,8.58
2019-05-23T14:26:57.593Z,12.28
2019-05-23T14:29:33.168Z,8.83
2019-05-23T14:32:22.154Z,12.80
2019-05-23T14:34:55.802Z,11.22
2019-05-23T14:37:33.986Z,8.30
2019-05-23T14:40:18.042Z,11.60
2019-05-23T14:42:59.661Z,12.37
2019-05-23T14:45:49.144Z,10.63
2019-05-23T14:48:26.214Z,9.35
2019-05-23T14:51:16.693Z,8.05
2019-05-23T14:53:57.597Z,7.12
2019-05-23T14:56:36.215Z,12.25
2019-05-23T14:59:09.028Z,9.48
2019-05-23T15:01:50.671Z,8.53
2019-05-23T15:04:27.655Z,12.45
2019-05-23T15:07:01.643Z,8.63
2019-05-23T15:09:34.040Z,9.48
2019-05-23T15:12:08.053Z,9.35
2019-05-23T15:14:40.990Z,11.90
2019-05-23T15:17:13.496Z,12.93
2019-05-23T15:19:48.890Z,8.45
2019-05-23T15:22:25.524Z,21.20
2019-05-23T15:24:58.055Z,8.60
2019-05-23T15:27:33.549Z,9.43
2019-05-23T15:30:08.025Z,8.60
2019-05-23T15:32:40.228Z,7.72
2019-05-23T15:35:14.723Z,9.00
2019-05-23T15:37:59.387Z,10.55
2019-05-23T15:40:28.402Z,10.20
2019-05-23T15:45:35.799Z,20.57
2019-05-23T15:48:10.478Z,13.55
2019-05-23T15:50:49.560Z,9.45
2019-05-23T15:53:26.788Z,7.70
2019-05-23T15:56:26.784Z,8.18
2019-05-23T15:58:46.586Z,14.87
2019-05-23T16:01:20.914Z,9.33
2019-05-23T16:04:08.432Z,9.45
2019-05-23T16:06:41.620Z,12.07
2019-05-23T16:09:28.745Z,10.45
2019-05-23T16:11:56.155Z,9.03
2019-05-23T16:14:31.917Z,8.73
2019-05-23T16:17:06.005Z,10.72
2019-05-23T16:19:40.443Z,8.60
2019-05-23T16:22:13.086Z,13.58
2019-05-23T16:27:43.679Z,10.45
2019-05-23T16:30:25.766Z,8.48
2019-05-23T16:33:10.202Z,9.48
2019-05-23T16:35:51.935Z,9.88
2019-05-23T16:38:27.553Z,12.60
2019-05-23T16:41:11.462Z,10.13
2019-05-23T16:43:45.439Z,9.23
2019-05-23T16:46:17.904Z,12.40
2019-05-23T16:48:51.437Z,11.20
2019-05-23T16:51:24.062Z,10.60
2019-05-23T16:54:06.541Z,14.05
2019-05-23T16:56:57.605Z,15.45
2019-05-23T17:02:28.958Z,9.03
2019-05-23T17:05:09.798Z,11.10
2019-05-23T17:07:57.607Z,11.43
2019-05-23T17:10:39.246Z,14.63
2019-05-23T17:13:28.699Z,18.67
2019-05-23T17:16:18.372Z,19.10
2019-05-23T17:18:52.621Z,19.87
2019-05-23T17:21:43.218Z,18.20
2019-05-23T17:24:33.599Z,17.65
2019-05-23T17:27:27.301Z,15.48
2019-05-23T17:30:08.979Z,13.40
2019-05-23T17:32:52.627Z,13.95
2019-05-23T17:38:28.323Z,13.65
2019-05-23T17:41:03.203Z,14.40
2019-05-23T17:43:40.286Z,25.00
2019-05-23T17:46:12.986Z,24.80
2019-05-23T17:48:47.464Z,20.85
2019-05-23T17:51:27.141Z,14.30
2019-05-23T17:54:00.461Z,12.65
2019-05-23T17:56:48.279Z,18.48
2019-05-23T17:59:17.144Z,26.62
2019-05-23T18:02:09.752Z,24.53
2019-05-23T18:07:23.308Z,17.92
2019-05-23T18:09:57.573Z,19.12
2019-05-23T18:12:32.410Z,30.55
2019-05-23T18:15:10.988Z,22.07
2019-05-23T18:17:43.831Z,22.13
2019-05-23T18:20:16.586Z,18.20
2019-05-23T18:22:55.126Z,19.00
2019-05-23T18:25:29.672Z,23.92
2019-05-23T18:28:06.929Z,20.55
2019-05-23T18:30:59.256Z,18.30
2019-05-23T18:33:32.646Z,32.25
2019-05-23T18:36:12.774Z,30.52
2019-05-23T18:38:47.939Z,25.72
2019-05-23T18:41:20.805Z,40.78
2019-05-23T18:44:06.267Z,29.07
2019-05-23T18:46:44.041Z,38.02
2019-05-23T18:49:18.665Z,26.42
2019-05-23T18:51:58.835Z,33.58
2019-05-23T18:54:31.469Z,29.87
2019-05-23T18:57:13.173Z,48.13
2019-05-23T18:59:51.219Z,73.02
2019-05-23T19:02:24.491Z,45.95
2019-05-23T19:04:56.811Z,55.05
2019-05-23T19:07:39.802Z,45.10
2019-05-23T19:10:20.621Z,42.05
2019-05-23T19:12:59.015Z,38.67
2019-05-23T19:15:33.758Z,35.65
2019-05-23T19:18:08.367Z,34.92
2019-05-23T19:20:40.933Z,47.83
2019-05-23T19:23:15.047Z,82.50
2019-05-23T19:25:47.835Z,90.77
2019-05-23T19:28:21.771Z,110.00
2019-05-23T19:33:26.586Z,46.90
2019-05-23T19:36:01.142Z,39.30
2019-05-23T19:38:35.130Z,31.07
2019-05-23T19:41:09.359Z,39.70
2019-05-23T19:44:01.515Z,38.08
2019-05-23T19:46:27.130Z,47.73
2019-05-23T19:49:05.993Z,54.10
2019-05-23T19:51:38.896Z,39.98
2019-05-23T19:54:16.907Z,38.63
2019-05-23T19:56:52.576Z,38.73
2019-05-23T19:59:27.082Z,47.98
2019-05-23T20:02:20.934Z,45.63
2019-05-23T20:05:06.552Z,42.08
2019-05-23T20:07:46.827Z,44.85
2019-05-23T20:10:29.318Z,40.78
2019-05-23T20:13:03.431Z,38.38
2019-05-23T20:15:46.647Z,45.28
2019-05-23T20:18:27.326Z,46.33
2019-05-23T20:21:00.513Z,43.60
2019-05-23T20:23:34.344Z,35.88
2019-05-23T20:26:08.241Z,34.35
2019-05-23T20:29:22.142Z,51.18
2019-05-23T20:31:55.327Z,41.70
2019-05-23T20:34:31.024Z,38.63
2019-05-23T20:37:03.771Z,49.40
2019-05-23T20:39:36.666Z,49.10
2019-05-23T20:42:30.559Z,48.78
2019-05-23T20:45:03.351Z,54.08
2019-05-23T20:47:41.094Z,48.50
2019-05-23T20:50:14.846Z,44.60
2019-05-23T20:52:47.493Z,54.98
2019-05-23T20:55:20.174Z,37.90
2019-05-23T20:57:52.967Z,50.10
2019-05-23T21:00:35.775Z,47.75
2019-05-23T21:03:10.289Z,41.02
2019-05-23T21:05:42.455Z,47.17
2019-05-23T21:08:15.029Z,44.08
2019-05-23T21:10:48.952Z,52.65
2019-05-23T21:13:21.161Z,48.92
2019-05-23T21:15:53.496Z,51.18
2019-05-23T21:18:25.952Z,47.30
2019-05-23T21:20:58.324Z,51.10
2019-05-23T21:23:31.000Z,52.17
2019-05-23T21:26:05.015Z,46.15
2019-05-23T21:28:37.689Z,47.95
2019-05-23T21:31:11.497Z,49.35
2019-05-23T21:33:44.998Z,48.83
2019-05-23T21:36:17.060Z,48.38
2019-05-23T21:38:49.733Z,47.65
2019-05-23T21:41:21.908Z,51.30
2019-05-23T21:43:55.713Z,42.78
2019-05-23T21:46:27.979Z,49.10
2019-05-23T21:49:01.471Z,48.42
2019-05-23T21:51:34.672Z,51.23
2019-05-23T21:54:06.953Z,50.80
2019-05-23T21:56:39.518Z,49.30
2019-05-23T21:59:11.998Z,44.50
2019-05-23T22:01:46.105Z,46.05
2019-05-23T22:04:29.339Z,46.15
2019-05-23T22:07:01.934Z,53.65
2019-05-23T22:09:34.686Z,51.92
2019-05-23T22:12:06.856Z,48.55
2019-05-23T22:14:39.738Z,51.10
2019-05-23T22:17:12.315Z,57.85
2019-05-23T22:19:44.688Z,52.90
2019-05-23T22:22:17.194Z,51.18
2019-05-23T22:24:49.842Z,48.00
2019-05-23T22:27:22.419Z,54.88
2019-05-23T22:29:54.991Z,52.10
2019-05-23T22:32:28.192Z,62.50
2019-05-23T22:35:01.994Z,68.17
2019-05-23T22:37:34.575Z,61.33
2019-05-23T22:40:07.040Z,63.50
2019-05-23T22:42:39.367Z,66.07
2019-05-23T22:45:13.215Z,61.47
2019-05-23T22:47:45.289Z,63.40
2019-05-23T22:50:17.915Z,59.48
2019-05-23T22:52:50.154Z,59.75
2019-05-23T22:55:22.617Z,66.77
2019-05-23T22:57:55.199Z,63.37
2019-05-23T23:00:36.011Z,71.30
2019-05-23T23:03:08.432Z,70.17
2019-05-23T23:05:40.695Z,66.80
2019-05-23T23:08:13.191Z,71.00
2019-05-23T23:10:45.751Z,69.37
2019-05-23T23:13:18.330Z,61.37
2019-05-23T23:15:50.910Z,67.17
2019-05-23T23:18:23.387Z,59.67
2019-05-23T23:20:55.867Z,60.20
2019-05-23T23:23:28.225Z,70.67
2019-05-23T23:28:37.171Z,69.70
2019-05-23T23:31:09.740Z,64.60
2019-05-23T23:33:41.921Z,68.60
2019-05-23T23:36:18.892Z,70.40
2019-05-23T23:38:52.706Z,67.92
2019-05-23T23:41:25.173Z,70.80
2019-05-23T23:43:59.778Z,75.37
2019-05-23T23:46:49.503Z,70.83
2019-05-23T23:49:39.559Z,67.90
2019-05-23T23:52:29.642Z,69.85
2019-05-23T23:55:19.839Z,71.12
2019-05-23T23:58:00.195Z,67.70
